Aérodrome :
LOGIN :

S'inscrire | Disclaimer

   EN    FR    IT 

 










Légende :    VFR   VFR Marginal   IFR   IFR Intensif   IFR Très Intensif
Visi : 
Plafond : 
>= 8 km
>= 3000ft
5 à 8 km
1000 à 3000 ft
1500m à 5 km
500 à 1000 ft
800 à 1500m
200 à 500 ft
< 800m
< 200 ft
Symboles :   Orages  Brouillard  Fortes neiges  Fortes précipitations  Vent > 20 kt
SIGMETs :   Divers  Orages  Givrage  Turbulence  Onde Orograph.  Cendres Volcan.






- Altitude de l'aérodrome : 755 ft
- Code IATA : DRS


EDDC - Dresden Klotzsche

DERNIER METAR :
  • 220150Z AUTO 18011KT 9999 FEW034 10/02 Q1005

METARs EXPIRÉS :
  • 220120Z AUTO 19008KT CAVOK 10/01 Q1005
  • 220050Z AUTO 18009KT 9999 SCT046 10/01 Q1006
  • 220020Z AUTO 18007KT 9999 FEW046 10/00 Q1007
  • 212350Z AUTO 18011KT 9999 FEW047 09/00 Q1007
  • 212320Z AUTO 19012KT CAVOK 09/00 Q1008
  • 212250Z AUTO 15007KT CAVOK 09/01 Q1008
  • 212220Z AUTO 13005KT CAVOK 09/01 Q1009
  • 212150Z AUTO 12002KT CAVOK 08/01 Q1009
  • 212120Z AUTO 12003KT 090V150 CAVOK 08/01 Q1009
  • 212050Z AUTO VRB02KT CAVOK 08/01 Q1010 NOSIG

TAF TAF EDDC
Valide du 22 à 00h jusqu'au 23 à 00h UTC


212300Z 2200/2224 18011KT 9999 SCT020 BKN040
PROB30
TEMPO 2208/2214 19015G25KT
TEMPO 2217/2220 18015G25KT RA
BECMG 2221/2224 22020G30KT



MET'MAP, la Météo Aéronautique d'un coup d'oeil ! - Copyright ORBIFLY Décembre 2007 - Disclaimer

ORBIFLY MET'MAP TEAM :

Programmation & Développement : Alexandra Zaïnal
Sur une idée originale de : Baudouin d'Aumeries
Soutien technique & logistique : Manuel Goepfert
Assistance : Marc-Olivier Méhu




SOURCES & CREDITS :

   NOAA